sensor_id;sensor_type;location;lat;lon;timestamp;P1;durP1;ratioP1;P2;durP2;ratioP2
68523;SDS011;55524;51.380;13.372;2023-05-15T00:00:36;5.50;;;4.97;;
68523;SDS011;55524;51.380;13.372;2023-05-15T00:03:03;5.60;;;5.10;;
68523;SDS011;55524;51.380;13.372;2023-05-15T00:05:29;5.03;;;4.57;;
68523;SDS011;55524;51.380;13.372;2023-05-15T00:07:56;5.63;;;4.95;;
68523;SDS011;55524;51.380;13.372;2023-05-15T00:10:22;5.15;;;4.75;;
68523;SDS011;55524;51.380;13.372;2023-05-15T00:12:48;5.80;;;5.18;;
68523;SDS011;55524;51.380;13.372;2023-05-15T00:15:15;5.90;;;5.40;;
68523;SDS011;55524;51.380;13.372;2023-05-15T00:17:41;5.75;;;5.15;;
68523;SDS011;55524;51.380;13.372;2023-05-15T00:20:07;6.03;;;5.47;;
68523;SDS011;55524;51.380;13.372;2023-05-15T00:22:34;5.60;;;5.05;;
68523;SDS011;55524;51.380;13.372;2023-05-15T00:25:00;5.75;;;4.65;;
68523;SDS011;55524;51.380;13.372;2023-05-15T00:27:27;5.72;;;5.05;;
68523;SDS011;55524;51.380;13.372;2023-05-15T00:29:53;5.85;;;5.32;;
68523;SDS011;55524;51.380;13.372;2023-05-15T00:32:19;5.57;;;5.07;;
68523;SDS011;55524;51.380;13.372;2023-05-15T00:34:45;5.55;;;5.03;;
68523;SDS011;55524;51.380;13.372;2023-05-15T00:37:12;6.20;;;5.60;;
68523;SDS011;55524;51.380;13.372;2023-05-15T00:39:38;7.50;;;5.90;;
68523;SDS011;55524;51.380;13.372;2023-05-15T00:42:04;5.75;;;5.25;;
68523;SDS011;55524;51.380;13.372;2023-05-15T00:44:31;5.70;;;5.20;;
68523;SDS011;55524;51.380;13.372;2023-05-15T00:46:58;6.47;;;5.88;;
68523;SDS011;55524;51.380;13.372;2023-05-15T00:49:28;6.75;;;6.00;;
68523;SDS011;55524;51.380;13.372;2023-05-15T00:51:56;6.18;;;5.57;;
68523;SDS011;55524;51.380;13.372;2023-05-15T00:54:25;6.13;;;5.53;;
68523;SDS011;55524;51.380;13.372;2023-05-15T00:56:54;5.82;;;5.22;;
68523;SDS011;55524;51.380;13.372;2023-05-15T00:59:25;6.13;;;5.32;;
68523;SDS011;55524;51.380;13.372;2023-05-15T01:01:55;5.75;;;5.10;;
68523;SDS011;55524;51.380;13.372;2023-05-15T01:04:22;5.55;;;4.97;;
68523;SDS011;55524;51.380;13.372;2023-05-15T01:06:48;5.75;;;5.25;;
68523;SDS011;55524;51.380;13.372;2023-05-15T01:09:18;6.85;;;5.30;;
68523;SDS011;55524;51.380;13.372;2023-05-15T01:11:47;5.43;;;4.93;;
68523;SDS011;55524;51.380;13.372;2023-05-15T01:14:17;5.32;;;4.82;;
68523;SDS011;55524;51.380;13.372;2023-05-15T01:16:43;6.25;;;5.18;;
68523;SDS011;55524;51.380;13.372;2023-05-15T01:19:10;5.90;;;5.30;;
68523;SDS011;55524;51.380;13.372;2023-05-15T01:40:48;6.68;;;5.75;;
68523;SDS011;55524;51.380;13.372;2023-05-15T01:43:21;6.38;;;5.78;;
68523;SDS011;55524;51.380;13.372;2023-05-15T01:45:52;6.43;;;5.38;;
68523;SDS011;55524;51.380;13.372;2023-05-15T01:48:20;6.68;;;6.00;;
68523;SDS011;55524;51.380;13.372;2023-05-15T01:50:49;7.10;;;6.40;;
68523;SDS011;55524;51.380;13.372;2023-05-15T01:53:18;8.40;;;7.18;;
68523;SDS011;55524;51.380;13.372;2023-05-15T01:55:45;7.00;;;6.30;;
68523;SDS011;55524;51.380;13.372;2023-05-15T01:58:13;7.00;;;6.32;;
68523;SDS011;55524;51.380;13.372;2023-05-15T02:00:41;6.43;;;5.82;;
68523;SDS011;55524;51.380;13.372;2023-05-15T02:03:08;9.00;;;6.53;;
68523;SDS011;55524;51.380;13.372;2023-05-15T02:05:35;7.30;;;6.18;;
68523;SDS011;55524;51.380;13.372;2023-05-15T02:08:02;5.82;;;5.30;;
68523;SDS011;55524;51.380;13.372;2023-05-15T02:10:29;6.80;;;6.10;;
68523;SDS011;55524;51.380;13.372;2023-05-15T02:12:57;6.15;;;5.53;;
68523;SDS011;55524;51.380;13.372;2023-05-15T02:15:24;5.35;;;4.90;;
68523;SDS011;55524;51.380;13.372;2023-05-15T02:17:53;5.97;;;4.97;;
68523;SDS011;55524;51.380;13.372;2023-05-15T02:20:20;6.07;;;5.47;;
68523;SDS011;55524;51.380;13.372;2023-05-15T02:22:46;5.35;;;4.88;;
68523;SDS011;55524;51.380;13.372;2023-05-15T02:25:12;7.55;;;5.80;;
68523;SDS011;55524;51.380;13.372;2023-05-15T02:30:34;5.82;;;5.28;;
68523;SDS011;55524;51.380;13.372;2023-05-15T02:33:30;6.00;;;4.82;;
68523;SDS011;55524;51.380;13.372;2023-05-15T02:36:10;6.28;;;4.70;;
68523;SDS011;55524;51.380;13.372;2023-05-15T02:38:46;6.32;;;5.10;;
68523;SDS011;55524;51.380;13.372;2023-05-15T02:41:16;5.72;;;5.10;;
68523;SDS011;55524;51.380;13.372;2023-05-15T02:43:43;6.60;;;4.90;;
68523;SDS011;55524;51.380;13.372;2023-05-15T02:46:13;5.22;;;4.78;;
68523;SDS011;55524;51.380;13.372;2023-05-15T02:48:40;8.75;;;5.18;;
68523;SDS011;55524;51.380;13.372;2023-05-15T02:51:07;5.60;;;5.10;;
68523;SDS011;55524;51.380;13.372;2023-05-15T02:53:38;6.03;;;5.05;;
68523;SDS011;55524;51.380;13.372;2023-05-15T02:56:05;5.22;;;4.80;;
68523;SDS011;55524;51.380;13.372;2023-05-15T02:58:32;6.45;;;5.82;;
68523;SDS011;55524;51.380;13.372;2023-05-15T03:00:59;8.20;;;7.30;;
68523;SDS011;55524;51.380;13.372;2023-05-15T03:03:25;6.80;;;6.20;;
68523;SDS011;55524;51.380;13.372;2023-05-15T03:05:52;6.55;;;5.32;;
68523;SDS011;55524;51.380;13.372;2023-05-15T03:08:18;7.63;;;6.80;;
68523;SDS011;55524;51.380;13.372;2023-05-15T03:10:45;8.25;;;6.38;;
68523;SDS011;55524;51.380;13.372;2023-05-15T03:13:11;6.65;;;6.05;;
68523;SDS011;55524;51.380;13.372;2023-05-15T03:15:38;6.70;;;5.97;;
68523;SDS011;55524;51.380;13.372;2023-05-15T03:18:04;7.70;;;6.00;;
68523;SDS011;55524;51.380;13.372;2023-05-15T03:20:30;7.93;;;6.50;;
68523;SDS011;55524;51.380;13.372;2023-05-15T03:22:56;7.40;;;6.65;;
68523;SDS011;55524;51.380;13.372;2023-05-15T03:25:23;6.85;;;6.20;;
68523;SDS011;55524;51.380;13.372;2023-05-15T03:27:49;7.32;;;6.18;;
68523;SDS011;55524;51.380;13.372;2023-05-15T03:30:15;7.30;;;6.57;;
68523;SDS011;55524;51.380;13.372;2023-05-15T03:32:42;8.05;;;6.55;;
68523;SDS011;55524;51.380;13.372;2023-05-15T03:35:08;7.13;;;6.45;;
68523;SDS011;55524;51.380;13.372;2023-05-15T03:37:36;8.65;;;7.13;;
68523;SDS011;55524;51.380;13.372;2023-05-15T03:40:02;9.55;;;6.93;;
68523;SDS011;55524;51.380;13.372;2023-05-15T03:42:29;7.93;;;7.22;;
68523;SDS011;55524;51.380;13.372;2023-05-15T03:44:55;8.75;;;7.13;;
68523;SDS011;55524;51.380;13.372;2023-05-15T03:47:21;8.30;;;7.45;;
68523;SDS011;55524;51.380;13.372;2023-05-15T03:49:47;8.00;;;7.20;;
68523;SDS011;55524;51.380;13.372;2023-05-15T03:52:14;8.13;;;6.80;;
68523;SDS011;55524;51.380;13.372;2023-05-15T03:54:41;7.28;;;6.55;;
68523;SDS011;55524;51.380;13.372;2023-05-15T03:57:07;6.68;;;5.75;;
68523;SDS011;55524;51.380;13.372;2023-05-15T03:59:33;6.55;;;5.95;;
68523;SDS011;55524;51.380;13.372;2023-05-15T04:02:00;6.78;;;6.07;;
68523;SDS011;55524;51.380;13.372;2023-05-15T04:04:26;7.25;;;6.55;;
68523;SDS011;55524;51.380;13.372;2023-05-15T04:06:52;8.45;;;6.55;;
68523;SDS011;55524;51.380;13.372;2023-05-15T04:09:19;7.72;;;6.55;;
68523;SDS011;55524;51.380;13.372;2023-05-15T04:11:45;9.55;;;6.63;;
68523;SDS011;55524;51.380;13.372;2023-05-15T04:14:12;11.80;;;6.82;;
68523;SDS011;55524;51.380;13.372;2023-05-15T04:16:38;7.57;;;6.78;;
68523;SDS011;55524;51.380;13.372;2023-05-15T04:19:04;8.40;;;7.47;;
68523;SDS011;55524;51.380;13.372;2023-05-15T04:21:31;9.45;;;7.55;;
68523;SDS011;55524;51.380;13.372;2023-05-15T04:23:57;11.90;;;7.95;;
68523;SDS011;55524;51.380;13.372;2023-05-15T04:26:23;9.77;;;8.55;;
68523;SDS011;55524;51.380;13.372;2023-05-15T04:28:50;10.00;;;7.80;;
68523;SDS011;55524;51.380;13.372;2023-05-15T04:31:16;10.73;;;7.75;;
68523;SDS011;55524;51.380;13.372;2023-05-15T04:33:42;10.20;;;7.93;;
68523;SDS011;55524;51.380;13.372;2023-05-15T04:36:09;11.60;;;8.40;;
68523;SDS011;55524;51.380;13.372;2023-05-15T04:38:35;10.20;;;9.15;;
68523;SDS011;55524;51.380;13.372;2023-05-15T04:41:01;12.13;;;7.38;;
68523;SDS011;55524;51.380;13.372;2023-05-15T04:43:28;11.27;;;7.45;;
68523;SDS011;55524;51.380;13.372;2023-05-15T04:45:54;10.27;;;8.52;;
68523;SDS011;55524;51.380;13.372;2023-05-15T04:48:20;13.65;;;8.40;;
68523;SDS011;55524;51.380;13.372;2023-05-15T04:50:46;10.05;;;8.75;;
68523;SDS011;55524;51.380;13.372;2023-05-15T04:53:13;12.50;;;8.77;;
68523;SDS011;55524;51.380;13.372;2023-05-15T04:55:39;11.13;;;9.20;;
68523;SDS011;55524;51.380;13.372;2023-05-15T04:58:05;10.85;;;9.43;;
68523;SDS011;55524;51.380;13.372;2023-05-15T05:00:32;13.63;;;9.68;;
68523;SDS011;55524;51.380;13.372;2023-05-15T05:03:00;12.13;;;9.57;;
68523;SDS011;55524;51.380;13.372;2023-05-15T05:05:27;12.05;;;9.25;;
68523;SDS011;55524;51.380;13.372;2023-05-15T05:07:54;11.75;;;9.15;;
68523;SDS011;55524;51.380;13.372;2023-05-15T05:10:20;12.05;;;9.55;;
68523;SDS011;55524;51.380;13.372;2023-05-15T05:12:47;11.35;;;9.23;;
68523;SDS011;55524;51.380;13.372;2023-05-15T05:15:13;11.95;;;8.57;;
68523;SDS011;55524;51.380;13.372;2023-05-15T05:17:39;12.07;;;8.88;;
68523;SDS011;55524;51.380;13.372;2023-05-15T05:20:06;9.68;;;8.63;;
68523;SDS011;55524;51.380;13.372;2023-05-15T05:22:33;9.32;;;7.72;;
68523;SDS011;55524;51.380;13.372;2023-05-15T05:24:59;12.55;;;8.35;;
68523;SDS011;55524;51.380;13.372;2023-05-15T05:27:26;12.00;;;8.65;;
68523;SDS011;55524;51.380;13.372;2023-05-15T05:29:52;10.13;;;8.75;;
68523;SDS011;55524;51.380;13.372;2023-05-15T05:32:19;11.45;;;8.27;;
68523;SDS011;55524;51.380;13.372;2023-05-15T05:34:45;13.38;;;8.95;;
68523;SDS011;55524;51.380;13.372;2023-05-15T05:37:11;16.23;;;8.73;;
68523;SDS011;55524;51.380;13.372;2023-05-15T05:39:37;10.13;;;8.50;;
68523;SDS011;55524;51.380;13.372;2023-05-15T05:42:04;12.52;;;8.30;;
68523;SDS011;55524;51.380;13.372;2023-05-15T05:44:30;22.45;;;8.90;;
68523;SDS011;55524;51.380;13.372;2023-05-15T05:46:58;17.08;;;9.13;;
68523;SDS011;55524;51.380;13.372;2023-05-15T05:49:24;17.98;;;8.13;;
68523;SDS011;55524;51.380;13.372;2023-05-15T05:51:50;12.35;;;7.38;;
68523;SDS011;55524;51.380;13.372;2023-05-15T05:54:17;18.88;;;8.18;;
68523;SDS011;55524;51.380;13.372;2023-05-15T05:56:43;8.88;;;7.07;;
68523;SDS011;55524;51.380;13.372;2023-05-15T05:59:10;57.05;;;10.80;;
68523;SDS011;55524;51.380;13.372;2023-05-15T06:01:36;11.52;;;7.53;;
68523;SDS011;55524;51.380;13.372;2023-05-15T06:04:02;14.25;;;8.07;;
68523;SDS011;55524;51.380;13.372;2023-05-15T06:06:29;56.53;;;9.40;;
68523;SDS011;55524;51.380;13.372;2023-05-15T06:08:55;13.32;;;7.13;;
68523;SDS011;55524;51.380;13.372;2023-05-15T06:11:21;9.38;;;7.28;;
68523;SDS011;55524;51.380;13.372;2023-05-15T06:13:48;8.27;;;7.25;;
68523;SDS011;55524;51.380;13.372;2023-05-15T06:16:14;53.72;;;9.35;;
68523;SDS011;55524;51.380;13.372;2023-05-15T06:18:40;7.65;;;6.72;;
68523;SDS011;55524;51.380;13.372;2023-05-15T06:21:07;14.00;;;7.38;;
68523;SDS011;55524;51.380;13.372;2023-05-15T06:23:33;12.82;;;7.43;;
68523;SDS011;55524;51.380;13.372;2023-05-15T06:25:59;9.52;;;7.28;;
68523;SDS011;55524;51.380;13.372;2023-05-15T06:28:26;10.73;;;7.65;;
68523;SDS011;55524;51.380;13.372;2023-05-15T06:30:52;8.85;;;7.22;;
68523;SDS011;55524;51.380;13.372;2023-05-15T06:33:19;74.90;;;11.43;;
68523;SDS011;55524;51.380;13.372;2023-05-15T06:35:46;17.90;;;8.00;;
68523;SDS011;55524;51.380;13.372;2023-05-15T06:38:12;29.15;;;8.75;;
68523;SDS011;55524;51.380;13.372;2023-05-15T06:40:38;13.48;;;7.45;;
68523;SDS011;55524;51.380;13.372;2023-05-15T06:43:05;14.25;;;7.13;;
68523;SDS011;55524;51.380;13.372;2023-05-15T06:45:31;7.32;;;6.50;;
68523;SDS011;55524;51.380;13.372;2023-05-15T06:47:57;11.18;;;7.20;;
68523;SDS011;55524;51.380;13.372;2023-05-15T06:50:23;31.27;;;8.52;;
68523;SDS011;55524;51.380;13.372;2023-05-15T06:52:50;10.75;;;7.40;;
68523;SDS011;55524;51.380;13.372;2023-05-15T06:55:16;43.28;;;9.00;;
68523;SDS011;55524;51.380;13.372;2023-05-15T06:57:42;18.13;;;7.35;;
68523;SDS011;55524;51.380;13.372;2023-05-15T07:00:09;11.77;;;7.38;;
68523;SDS011;55524;51.380;13.372;2023-05-15T07:02:36;12.20;;;6.97;;
68523;SDS011;55524;51.380;13.372;2023-05-15T07:05:02;8.40;;;6.85;;
68523;SDS011;55524;51.380;13.372;2023-05-15T07:07:28;31.73;;;8.68;;
68523;SDS011;55524;51.380;13.372;2023-05-15T07:09:55;10.77;;;6.50;;
68523;SDS011;55524;51.380;13.372;2023-05-15T07:12:21;11.63;;;6.60;;
68523;SDS011;55524;51.380;13.372;2023-05-15T07:14:47;17.98;;;7.38;;
68523;SDS011;55524;51.380;13.372;2023-05-15T07:17:14;15.23;;;7.28;;
68523;SDS011;55524;51.380;13.372;2023-05-15T07:19:40;15.80;;;7.85;;
68523;SDS011;55524;51.380;13.372;2023-05-15T07:22:06;49.10;;;9.57;;
68523;SDS011;55524;51.380;13.372;2023-05-15T07:24:32;20.08;;;7.65;;
68523;SDS011;55524;51.380;13.372;2023-05-15T07:26:59;11.57;;;7.13;;
68523;SDS011;55524;51.380;13.372;2023-05-15T07:29:25;7.43;;;6.45;;
68523;SDS011;55524;51.380;13.372;2023-05-15T07:31:51;7.50;;;6.65;;
68523;SDS011;55524;51.380;13.372;2023-05-15T07:34:18;11.70;;;6.85;;
68523;SDS011;55524;51.380;13.372;2023-05-15T07:36:44;9.95;;;6.55;;
68523;SDS011;55524;51.380;13.372;2023-05-15T07:39:11;8.35;;;7.38;;
68523;SDS011;55524;51.380;13.372;2023-05-15T07:41:37;9.40;;;6.95;;
68523;SDS011;55524;51.380;13.372;2023-05-15T07:44:04;10.43;;;7.57;;
68523;SDS011;55524;51.380;13.372;2023-05-15T07:46:30;17.42;;;6.80;;
68523;SDS011;55524;51.380;13.372;2023-05-15T07:48:57;12.48;;;7.05;;
68523;SDS011;55524;51.380;13.372;2023-05-15T07:51:23;9.95;;;7.20;;
68523;SDS011;55524;51.380;13.372;2023-05-15T07:53:50;24.77;;;8.18;;
68523;SDS011;55524;51.380;13.372;2023-05-15T07:56:16;20.42;;;7.70;;
68523;SDS011;55524;51.380;13.372;2023-05-15T07:58:42;16.77;;;7.30;;
68523;SDS011;55524;51.380;13.372;2023-05-15T08:01:08;12.65;;;7.28;;
68523;SDS011;55524;51.380;13.372;2023-05-15T08:03:35;10.20;;;6.95;;
68523;SDS011;55524;51.380;13.372;2023-05-15T08:06:01;9.10;;;7.30;;
68523;SDS011;55524;51.380;13.372;2023-05-15T08:08:27;10.07;;;7.63;;
68523;SDS011;55524;51.380;13.372;2023-05-15T08:10:54;11.93;;;7.18;;
68523;SDS011;55524;51.380;13.372;2023-05-15T08:13:20;38.22;;;8.75;;
68523;SDS011;55524;51.380;13.372;2023-05-15T08:15:46;29.02;;;7.88;;
68523;SDS011;55524;51.380;13.372;2023-05-15T08:18:13;11.52;;;7.30;;
68523;SDS011;55524;51.380;13.372;2023-05-15T08:20:39;9.55;;;7.07;;
68523;SDS011;55524;51.380;13.372;2023-05-15T08:23:05;7.97;;;6.45;;
68523;SDS011;55524;51.380;13.372;2023-05-15T08:25:31;9.30;;;6.90;;
68523;SDS011;55524;51.380;13.372;2023-05-15T08:27:57;10.38;;;6.95;;
68523;SDS011;55524;51.380;13.372;2023-05-15T08:30:24;11.38;;;7.50;;
68523;SDS011;55524;51.380;13.372;2023-05-15T08:32:50;9.45;;;7.20;;
68523;SDS011;55524;51.380;13.372;2023-05-15T08:35:17;8.10;;;7.10;;
68523;SDS011;55524;51.380;13.372;2023-05-15T08:37:43;7.65;;;6.82;;
68523;SDS011;55524;51.380;13.372;2023-05-15T08:40:10;10.45;;;7.03;;
68523;SDS011;55524;51.380;13.372;2023-05-15T08:42:39;11.02;;;7.15;;
68523;SDS011;55524;51.380;13.372;2023-05-15T08:45:08;8.23;;;6.88;;
68523;SDS011;55524;51.380;13.372;2023-05-15T08:47:37;7.25;;;6.65;;
68523;SDS011;55524;51.380;13.372;2023-05-15T08:50:06;8.73;;;7.22;;
68523;SDS011;55524;51.380;13.372;2023-05-15T08:52:39;10.55;;;6.95;;
68523;SDS011;55524;51.380;13.372;2023-05-15T08:55:15;15.38;;;7.75;;
68523;SDS011;55524;51.380;13.372;2023-05-15T08:57:42;8.50;;;7.10;;
68523;SDS011;55524;51.380;13.372;2023-05-15T09:00:09;9.45;;;7.35;;
68523;SDS011;55524;51.380;13.372;2023-05-15T09:02:38;10.10;;;7.03;;
68523;SDS011;55524;51.380;13.372;2023-05-15T09:05:06;8.05;;;6.88;;
68523;SDS011;55524;51.380;13.372;2023-05-15T09:07:34;9.38;;;7.32;;
68523;SDS011;55524;51.380;13.372;2023-05-15T09:10:02;15.13;;;6.90;;
68523;SDS011;55524;51.380;13.372;2023-05-15T09:12:31;8.07;;;7.30;;
68523;SDS011;55524;51.380;13.372;2023-05-15T09:17:54;8.82;;;6.75;;
68523;SDS011;55524;51.380;13.372;2023-05-15T09:22:56;6.43;;;5.60;;
68523;SDS011;55524;51.380;13.372;2023-05-15T09:25:37;5.88;;;5.13;;
68523;SDS011;55524;51.380;13.372;2023-05-15T09:28:30;9.23;;;4.88;;
68523;SDS011;55524;51.380;13.372;2023-05-15T09:31:01;7.80;;;4.82;;
68523;SDS011;55524;51.380;13.372;2023-05-15T09:36:06;5.65;;;5.13;;
68523;SDS011;55524;51.380;13.372;2023-05-15T09:38:40;7.57;;;5.18;;
68523;SDS011;55524;51.380;13.372;2023-05-15T09:41:07;10.57;;;5.97;;
68523;SDS011;55524;51.380;13.372;2023-05-15T09:43:38;36.85;;;7.38;;
68523;SDS011;55524;51.380;13.372;2023-05-15T09:46:05;6.15;;;5.45;;
68523;SDS011;55524;51.380;13.372;2023-05-15T09:48:33;6.18;;;5.35;;
68523;SDS011;55524;51.380;13.372;2023-05-15T09:50:59;7.05;;;4.85;;
68523;SDS011;55524;51.380;13.372;2023-05-15T09:53:27;5.95;;;5.35;;
68523;SDS011;55524;51.380;13.372;2023-05-15T09:55:55;8.60;;;5.90;;
68523;SDS011;55524;51.380;13.372;2023-05-15T09:58:22;7.20;;;6.30;;
68523;SDS011;55524;51.380;13.372;2023-05-15T10:00:48;8.38;;;6.25;;
68523;SDS011;55524;51.380;13.372;2023-05-15T10:03:15;9.25;;;6.38;;
68523;SDS011;55524;51.380;13.372;2023-05-15T10:05:45;9.93;;;6.30;;
68523;SDS011;55524;51.380;13.372;2023-05-15T10:08:12;11.32;;;6.78;;
68523;SDS011;55524;51.380;13.372;2023-05-15T10:10:40;10.05;;;6.13;;
68523;SDS011;55524;51.380;13.372;2023-05-15T10:13:07;11.27;;;7.68;;
68523;SDS011;55524;51.380;13.372;2023-05-15T10:15:35;6.53;;;5.38;;
68523;SDS011;55524;51.380;13.372;2023-05-15T10:18:03;50.65;;;9.80;;
68523;SDS011;55524;51.380;13.372;2023-05-15T10:20:29;8.35;;;7.00;;
68523;SDS011;55524;51.380;13.372;2023-05-15T10:22:57;7.70;;;6.90;;
68523;SDS011;55524;51.380;13.372;2023-05-15T10:25:32;7.20;;;6.07;;
68523;SDS011;55524;51.380;13.372;2023-05-15T10:27:58;7.40;;;6.63;;
68523;SDS011;55524;51.380;13.372;2023-05-15T10:30:25;13.75;;;6.63;;
68523;SDS011;55524;51.380;13.372;2023-05-15T10:32:53;7.20;;;6.38;;
68523;SDS011;55524;51.380;13.372;2023-05-15T10:35:20;9.43;;;4.95;;
68523;SDS011;55524;51.380;13.372;2023-05-15T10:37:47;4.90;;;4.50;;
68523;SDS011;55524;51.380;13.372;2023-05-15T10:40:14;7.97;;;3.60;;
68523;SDS011;55524;51.380;13.372;2023-05-15T10:42:41;4.47;;;4.07;;
68523;SDS011;55524;51.380;13.372;2023-05-15T10:45:09;3.95;;;3.65;;
68523;SDS011;55524;51.380;13.372;2023-05-15T10:47:37;5.00;;;4.18;;
68523;SDS011;55524;51.380;13.372;2023-05-15T10:50:05;4.13;;;3.70;;
68523;SDS011;55524;51.380;13.372;2023-05-15T10:52:37;4.25;;;3.72;;
68523;SDS011;55524;51.380;13.372;2023-05-15T10:55:07;3.75;;;3.45;;
68523;SDS011;55524;51.380;13.372;2023-05-15T10:57:37;4.55;;;4.15;;
68523;SDS011;55524;51.380;13.372;2023-05-15T11:00:25;4.93;;;3.60;;
68523;SDS011;55524;51.380;13.372;2023-05-15T11:02:52;4.57;;;3.08;;
68523;SDS011;55524;51.380;13.372;2023-05-15T11:05:21;3.65;;;3.15;;
68523;SDS011;55524;51.380;13.372;2023-05-15T11:10:39;6.82;;;3.50;;
68523;SDS011;55524;51.380;13.372;2023-05-15T11:13:06;7.00;;;3.35;;
68523;SDS011;55524;51.380;13.372;2023-05-15T11:15:42;3.95;;;2.75;;
68523;SDS011;55524;51.380;13.372;2023-05-15T11:18:09;8.13;;;3.08;;
68523;SDS011;55524;51.380;13.372;2023-05-15T11:20:40;5.57;;;3.00;;
68523;SDS011;55524;51.380;13.372;2023-05-15T11:23:26;5.30;;;3.20;;
68523;SDS011;55524;51.380;13.372;2023-05-15T11:25:54;5.72;;;3.40;;
68523;SDS011;55524;51.380;13.372;2023-05-15T11:28:22;5.43;;;3.03;;
68523;SDS011;55524;51.380;13.372;2023-05-15T11:30:49;7.32;;;3.35;;
68523;SDS011;55524;51.380;13.372;2023-05-15T11:33:18;3.30;;;3.08;;
68523;SDS011;55524;51.380;13.372;2023-05-15T11:35:45;3.60;;;3.20;;
68523;SDS011;55524;51.380;13.372;2023-05-15T11:38:16;5.20;;;3.28;;
68523;SDS011;55524;51.380;13.372;2023-05-15T11:40:49;3.15;;;2.95;;
68523;SDS011;55524;51.380;13.372;2023-05-15T11:43:21;3.65;;;3.13;;
68523;SDS011;55524;51.380;13.372;2023-05-15T11:45:52;3.73;;;3.10;;
68523;SDS011;55524;51.380;13.372;2023-05-15T11:50:49;4.75;;;3.17;;
68523;SDS011;55524;51.380;13.372;2023-05-15T11:53:18;3.40;;;3.10;;
68523;SDS011;55524;51.380;13.372;2023-05-15T11:55:47;3.42;;;3.13;;
68523;SDS011;55524;51.380;13.372;2023-05-15T11:58:16;3.60;;;3.30;;
68523;SDS011;55524;51.380;13.372;2023-05-15T12:00:44;4.97;;;3.58;;
68523;SDS011;55524;51.380;13.372;2023-05-15T12:03:15;5.70;;;3.17;;
68523;SDS011;55524;51.380;13.372;2023-05-15T12:05:49;4.00;;;3.13;;
68523;SDS011;55524;51.380;13.372;2023-05-15T12:08:17;4.22;;;3.45;;
68523;SDS011;55524;51.380;13.372;2023-05-15T12:10:48;6.90;;;3.45;;
68523;SDS011;55524;51.380;13.372;2023-05-15T12:13:16;3.22;;;2.88;;
68523;SDS011;55524;51.380;13.372;2023-05-15T12:15:44;4.43;;;3.20;;
68523;SDS011;55524;51.380;13.372;2023-05-15T12:18:11;14.50;;;4.38;;
68523;SDS011;55524;51.380;13.372;2023-05-15T12:20:38;11.50;;;4.10;;
68523;SDS011;55524;51.380;13.372;2023-05-15T12:23:13;8.82;;;3.38;;
68523;SDS011;55524;51.380;13.372;2023-05-15T12:25:40;15.43;;;3.60;;
68523;SDS011;55524;51.380;13.372;2023-05-15T12:28:09;5.10;;;3.58;;
68523;SDS011;55524;51.380;13.372;2023-05-15T12:30:37;6.15;;;3.85;;
68523;SDS011;55524;51.380;13.372;2023-05-15T12:33:07;4.57;;;3.25;;
68523;SDS011;55524;51.380;13.372;2023-05-15T12:35:35;3.60;;;3.30;;
68523;SDS011;55524;51.380;13.372;2023-05-15T12:38:06;4.13;;;3.30;;
68523;SDS011;55524;51.380;13.372;2023-05-15T12:40:33;3.95;;;3.58;;
68523;SDS011;55524;51.380;13.372;2023-05-15T12:43:06;4.95;;;3.00;;
68523;SDS011;55524;51.380;13.372;2023-05-15T12:45:36;3.25;;;3.05;;
68523;SDS011;55524;51.380;13.372;2023-05-15T12:48:04;4.17;;;3.50;;
68523;SDS011;55524;51.380;13.372;2023-05-15T12:50:32;3.78;;;3.47;;
68523;SDS011;55524;51.380;13.372;2023-05-15T12:53:00;5.55;;;3.45;;
68523;SDS011;55524;51.380;13.372;2023-05-15T12:57:58;4.55;;;3.10;;
68523;SDS011;55524;51.380;13.372;2023-05-15T13:00:30;4.10;;;3.45;;
68523;SDS011;55524;51.380;13.372;2023-05-15T13:02:59;7.97;;;3.65;;
68523;SDS011;55524;51.380;13.372;2023-05-15T13:05:28;7.03;;;4.07;;
68523;SDS011;55524;51.380;13.372;2023-05-15T13:07:57;4.10;;;3.60;;
68523;SDS011;55524;51.380;13.372;2023-05-15T13:10:25;8.05;;;3.63;;
68523;SDS011;55524;51.380;13.372;2023-05-15T13:12:52;4.30;;;3.90;;
68523;SDS011;55524;51.380;13.372;2023-05-15T13:20:26;6.35;;;3.53;;
68523;SDS011;55524;51.380;13.372;2023-05-15T13:22:53;20.60;;;3.92;;
68523;SDS011;55524;51.380;13.372;2023-05-15T13:25:20;4.32;;;3.00;;
68523;SDS011;55524;51.380;13.372;2023-05-15T13:27:46;3.80;;;3.28;;
68523;SDS011;55524;51.380;13.372;2023-05-15T13:30:14;4.32;;;3.10;;
68523;SDS011;55524;51.380;13.372;2023-05-15T13:32:41;17.55;;;3.92;;
68523;SDS011;55524;51.380;13.372;2023-05-15T13:35:08;7.60;;;3.00;;
68523;SDS011;55524;51.380;13.372;2023-05-15T13:37:35;4.70;;;3.50;;
68523;SDS011;55524;51.380;13.372;2023-05-15T13:40:06;8.10;;;3.38;;
68523;SDS011;55524;51.380;13.372;2023-05-15T13:42:34;4.53;;;3.17;;
68523;SDS011;55524;51.380;13.372;2023-05-15T13:45:06;14.23;;;3.88;;
68523;SDS011;55524;51.380;13.372;2023-05-15T13:47:33;20.15;;;3.40;;
68523;SDS011;55524;51.380;13.372;2023-05-15T13:50:00;6.43;;;3.25;;
68523;SDS011;55524;51.380;13.372;2023-05-15T13:52:26;5.00;;;2.97;;
68523;SDS011;55524;51.380;13.372;2023-05-15T13:54:53;7.68;;;3.38;;
68523;SDS011;55524;51.380;13.372;2023-05-15T13:57:20;3.90;;;3.28;;
68523;SDS011;55524;51.380;13.372;2023-05-15T13:59:46;5.60;;;3.30;;
68523;SDS011;55524;51.380;13.372;2023-05-15T14:02:13;10.85;;;3.40;;
68523;SDS011;55524;51.380;13.372;2023-05-15T14:04:42;5.32;;;3.20;;
68523;SDS011;55524;51.380;13.372;2023-05-15T14:07:10;4.07;;;3.20;;
68523;SDS011;55524;51.380;13.372;2023-05-15T14:09:37;5.68;;;3.42;;
68523;SDS011;55524;51.380;13.372;2023-05-15T14:12:03;6.25;;;3.40;;
68523;SDS011;55524;51.380;13.372;2023-05-15T14:14:30;3.42;;;3.03;;
68523;SDS011;55524;51.380;13.372;2023-05-15T14:16:56;9.18;;;3.63;;
68523;SDS011;55524;51.380;13.372;2023-05-15T14:19:22;6.25;;;3.30;;
68523;SDS011;55524;51.380;13.372;2023-05-15T14:21:49;3.47;;;2.97;;
68523;SDS011;55524;51.380;13.372;2023-05-15T14:24:15;6.45;;;2.97;;
68523;SDS011;55524;51.380;13.372;2023-05-15T14:26:41;3.45;;;3.15;;
68523;SDS011;55524;51.380;13.372;2023-05-15T14:29:09;7.70;;;3.30;;
68523;SDS011;55524;51.380;13.372;2023-05-15T14:31:36;3.85;;;3.50;;
68523;SDS011;55524;51.380;13.372;2023-05-15T14:34:02;6.25;;;3.15;;
68523;SDS011;55524;51.380;13.372;2023-05-15T14:36:30;3.78;;;3.35;;
68523;SDS011;55524;51.380;13.372;2023-05-15T14:38:56;9.77;;;3.60;;
68523;SDS011;55524;51.380;13.372;2023-05-15T14:41:23;5.22;;;3.45;;
68523;SDS011;55524;51.380;13.372;2023-05-15T14:43:49;5.72;;;3.20;;
68523;SDS011;55524;51.380;13.372;2023-05-15T14:46:17;7.78;;;3.65;;
68523;SDS011;55524;51.380;13.372;2023-05-15T14:48:44;4.55;;;3.63;;
68523;SDS011;55524;51.380;13.372;2023-05-15T14:51:10;4.20;;;3.90;;
68523;SDS011;55524;51.380;13.372;2023-05-15T14:53:36;7.38;;;3.95;;
68523;SDS011;55524;51.380;13.372;2023-05-15T14:56:03;7.32;;;4.20;;
68523;SDS011;55524;51.380;13.372;2023-05-15T14:58:29;5.40;;;3.75;;
68523;SDS011;55524;51.380;13.372;2023-05-15T15:00:56;6.82;;;3.70;;
68523;SDS011;55524;51.380;13.372;2023-05-15T15:03:22;4.25;;;2.88;;
68523;SDS011;55524;51.380;13.372;2023-05-15T15:05:49;3.10;;;2.80;;
68523;SDS011;55524;51.380;13.372;2023-05-15T15:08:16;9.25;;;3.35;;
68523;SDS011;55524;51.380;13.372;2023-05-15T15:10:42;2.72;;;2.53;;
68523;SDS011;55524;51.380;13.372;2023-05-15T15:13:08;3.78;;;2.88;;
68523;SDS011;55524;51.380;13.372;2023-05-15T15:15:37;5.43;;;3.33;;